Time;durP1;ratioP1;P1;durP2;ratioP2;P2;SDS_P1;SDS_P2;PMS_P1;PMS_P2;Temp;Humidity;BMP_temperature;BMP_pressure;BME280_temperature;BME280_humidity;BME280_pressure;Samples;Min_cycle;Max_cycle;Signal;HPM_P1;HPM_P2
2022/08/25 00:01:32;;;;;;;9.35;7.78;;;;;;;;;;4998231;28;20609;-56
2022/08/25 00:04:00;;;;;;;7.50;6.88;;;;;;;;;;5005443;28;20668;-57
2022/08/25 00:06:26;;;;;;;10.50;6.88;;;;;;;;;;5001013;28;20237;-57
2022/08/25 00:08:53;;;;;;;8.48;6.68;;;;;;;;;;5004547;28;20237;-59
2022/08/25 00:11:21;;;;;;;10.00;7.20;;;;;;;;;;5002395;28;20672;-56
2022/08/25 00:13:49;;;;;;;8.85;7.40;;;;;;;;;;5003273;28;20237;-55
2022/08/25 00:16:18;;;;;;;8.07;6.72;;;;;;;;;;5000544;28;20229;-56
2022/08/25 00:18:45;;;;;;;7.00;6.38;;;;;;;;;;5001943;28;20652;-57
2022/08/25 00:21:11;;;;;;;7.03;6.43;;;;;;;;;;5003846;28;20770;-58
2022/08/25 00:23:38;;;;;;;7.60;6.80;;;;;;;;;;5002759;28;20762;-56
2022/08/25 00:26:05;;;;;;;7.60;6.38;;;;;;;;;;4997419;28;20229;-55
2022/08/25 00:28:31;;;;;;;7.60;6.80;;;;;;;;;;5000167;28;20241;-56
2022/08/25 00:31:00;;;;;;;9.75;7.40;;;;;;;;;;5003532;28;20240;-56
2022/08/25 00:33:29;;;;;;;7.32;6.60;;;;;;;;;;5004178;28;20267;-56
2022/08/25 00:35:56;;;;;;;10.23;6.80;;;;;;;;;;5003107;28;20729;-57
2022/08/25 00:38:23;;;;;;;9.00;7.35;;;;;;;;;;5002653;28;20745;-57
2022/08/25 00:41:04;;;;;;;7.75;6.45;;;;;;;;;;4998060;28;20655;-57
2022/08/25 00:43:33;;;;;;;7.10;5.95;;;;;;;;;;5003971;28;21001;-57
2022/08/25 00:46:00;;;;;;;9.52;7.57;;;;;;;;;;5001833;28;20276;-57
2022/08/25 00:48:30;;;;;;;8.85;7.53;;;;;;;;;;5006911;28;20236;-57
2022/08/25 00:50:56;;;;;;;8.43;7.13;;;;;;;;;;4999551;28;20233;-58
2022/08/25 00:53:23;;;;;;;8.00;6.53;;;;;;;;;;5002064;28;20252;-56
2022/08/25 00:55:49;;;;;;;10.48;7.53;;;;;;;;;;4991961;28;20237;-56
2022/08/25 00:58:17;;;;;;;7.30;6.63;;;;;;;;;;5000017;28;20272;-57
2022/08/25 01:00:45;;;;;;;7.63;6.82;;;;;;;;;;4998767;28;20241;-56
2022/08/25 01:03:11;;;;;;;8.13;6.47;;;;;;;;;;5004950;28;20233;-57
2022/08/25 01:05:40;;;;;;;7.32;6.15;;;;;;;;;;5000680;28;20252;-56
2022/08/25 01:08:07;;;;;;;8.90;7.20;;;;;;;;;;5004635;28;20261;-57
2022/08/25 01:10:35;;;;;;;6.88;6.25;;;;;;;;;;5003024;28;20605;-57
2022/08/25 01:13:02;;;;;;;7.18;6.30;;;;;;;;;;5002879;28;20229;-56
2022/08/25 01:15:29;;;;;;;7.35;6.72;;;;;;;;;;4999665;28;20229;-57
2022/08/25 01:17:57;;;;;;;8.77;7.07;;;;;;;;;;5005651;28;20263;-57
2022/08/25 01:20:25;;;;;;;7.43;6.68;;;;;;;;;;5003603;28;20242;-58
2022/08/25 01:22:54;;;;;;;9.18;7.05;;;;;;;;;;4998559;28;20269;-57
2022/08/25 01:25:23;;;;;;;6.90;6.22;;;;;;;;;;5000930;28;20237;-56
2022/08/25 01:27:49;;;;;;;7.80;6.65;;;;;;;;;;5001707;28;20229;-57
2022/08/25 01:30:16;;;;;;;7.18;6.47;;;;;;;;;;4996396;28;20256;-56
2022/08/25 01:32:42;;;;;;;7.85;7.15;;;;;;;;;;5001680;28;20593;-57
2022/08/25 01:35:08;;;;;;;7.60;6.72;;;;;;;;;;5003857;28;20280;-56
2022/08/25 01:37:35;;;;;;;7.88;7.07;;;;;;;;;;4998697;28;20264;-55
2022/08/25 01:40:03;;;;;;;9.77;7.07;;;;;;;;;;5003347;28;20241;-57
2022/08/25 01:42:37;;;;;;;9.65;6.90;;;;;;;;;;5003451;28;20229;-57
2022/08/25 01:45:04;;;;;;;10.88;7.60;;;;;;;;;;5005326;28;20720;-57
2022/08/25 01:47:31;;;;;;;7.75;7.05;;;;;;;;;;5000810;28;20703;-57
2022/08/25 01:49:57;;;;;;;9.80;7.78;;;;;;;;;;4996680;28;20244;-57
2022/08/25 01:52:24;;;;;;;8.05;7.07;;;;;;;;;;5000551;28;20232;-57
2022/08/25 01:54:51;;;;;;;8.25;6.93;;;;;;;;;;4999321;28;20267;-56
2022/08/25 01:57:18;;;;;;;7.53;6.43;;;;;;;;;;5002812;28;20249;-57
2022/08/25 01:59:45;;;;;;;8.23;6.50;;;;;;;;;;5008760;28;20240;-57
2022/08/25 02:02:11;;;;;;;6.82;6.18;;;;;;;;;;5010726;28;20239;-58
2022/08/25 02:04:38;;;;;;;8.80;7.18;;;;;;;;;;5004959;28;20249;-57
2022/08/25 02:07:06;;;;;;;7.82;6.90;;;;;;;;;;5004493;28;20324;-57
2022/08/25 02:09:33;;;;;;;8.30;6.45;;;;;;;;;;5005014;28;20237;-57
2022/08/25 02:12:00;;;;;;;9.68;7.00;;;;;;;;;;5006602;28;20225;-56
2022/08/25 02:14:28;;;;;;;7.80;6.95;;;;;;;;;;5007329;28;20236;-57
2022/08/25 02:16:54;;;;;;;7.13;6.43;;;;;;;;;;5004919;28;20298;-57
2022/08/25 02:19:22;;;;;;;9.90;7.82;;;;;;;;;;5008083;28;20850;-57
2022/08/25 02:21:48;;;;;;;9.13;8.05;;;;;;;;;;5001927;28;20240;-57
2022/08/25 02:24:15;;;;;;;11.20;7.80;;;;;;;;;;5006613;28;20584;-57
2022/08/25 02:26:41;;;;;;;12.55;9.43;;;;;;;;;;5006493;28;20233;-57
2022/08/25 02:29:08;;;;;;;8.30;7.30;;;;;;;;;;5007828;28;20244;-56
2022/08/25 02:31:36;;;;;;;12.05;6.95;;;;;;;;;;5008764;28;20236;-57
2022/08/25 02:34:03;;;;;;;8.32;6.88;;;;;;;;;;5010048;28;20264;-57
2022/08/25 02:36:30;;;;;;;7.90;7.07;;;;;;;;;;5005712;28;20225;-56
2022/08/25 02:38:57;;;;;;;10.60;7.10;;;;;;;;;;5006682;28;20236;-57
2022/08/25 02:41:24;;;;;;;10.43;6.55;;;;;;;;;;5006868;28;20237;-58
2022/08/25 02:43:51;;;;;;;7.93;6.93;;;;;;;;;;5007853;28;20234;-57
2022/08/25 02:46:19;;;;;;;8.93;7.95;;;;;;;;;;5006900;28;20248;-58
2022/08/25 02:48:47;;;;;;;10.07;7.45;;;;;;;;;;5003136;28;20238;-56
2022/08/25 02:51:14;;;;;;;10.90;7.32;;;;;;;;;;5009217;28;20245;-56
2022/08/25 02:53:41;;;;;;;7.88;7.07;;;;;;;;;;5003344;28;20233;-56
2022/08/25 02:56:08;;;;;;;8.68;7.20;;;;;;;;;;5006192;28;20806;-57
2022/08/25 02:58:35;;;;;;;9.43;7.72;;;;;;;;;;5008236;28;20690;-57
2022/08/25 03:01:02;;;;;;;11.57;8.38;;;;;;;;;;5007490;28;20240;-56
2022/08/25 03:03:28;;;;;;;9.15;8.30;;;;;;;;;;5003545;28;20229;-57
2022/08/25 03:05:56;;;;;;;8.00;7.22;;;;;;;;;;5005902;28;20240;-57
2022/08/25 03:08:22;;;;;;;11.05;8.07;;;;;;;;;;4995192;28;20252;-57
2022/08/25 03:10:51;;;;;;;8.25;7.45;;;;;;;;;;5004007;28;20531;-56
2022/08/25 03:13:17;;;;;;;9.57;8.45;;;;;;;;;;5003656;28;20249;-56
2022/08/25 03:15:44;;;;;;;9.43;8.48;;;;;;;;;;5003889;28;20248;-56
2022/08/25 03:18:11;;;;;;;8.60;7.30;;;;;;;;;;5005320;28;20233;-57
2022/08/25 03:20:38;;;;;;;9.00;7.80;;;;;;;;;;4998649;28;20897;-58
2022/08/25 03:23:06;;;;;;;9.50;7.53;;;;;;;;;;5003820;28;20225;-57
2022/08/25 03:28:22;;;;;;;8.68;7.78;;;;;;;;;;4946706;28;20264;-57
2022/08/25 03:30:48;;;;;;;9.05;7.90;;;;;;;;;;5006022;28;20237;-57
2022/08/25 03:33:15;;;;;;;10.88;8.07;;;;;;;;;;5005598;28;20247;-57
2022/08/25 03:35:41;;;;;;;8.57;7.45;;;;;;;;;;5006868;28;20312;-56
2022/08/25 03:38:10;;;;;;;10.02;9.00;;;;;;;;;;5000304;28;20841;-58
2022/08/25 03:40:36;;;;;;;12.45;8.15;;;;;;;;;;5005625;28;20260;-57
2022/08/25 03:43:03;;;;;;;11.73;9.10;;;;;;;;;;5001429;28;20225;-57
2022/08/25 03:45:29;;;;;;;10.43;8.65;;;;;;;;;;5001091;28;20312;-56
2022/08/25 03:47:56;;;;;;;11.10;9.95;;;;;;;;;;5002167;28;20312;-56
2022/08/25 03:50:23;;;;;;;10.43;9.43;;;;;;;;;;5007809;28;20328;-56
2022/08/25 03:52:53;;;;;;;11.48;8.63;;;;;;;;;;5002133;28;20332;-56
2022/08/25 03:55:21;;;;;;;10.38;9.05;;;;;;;;;;4999888;28;20316;-57
2022/08/25 03:57:48;;;;;;;10.43;8.45;;;;;;;;;;5006356;28;20714;-57
2022/08/25 04:00:14;;;;;;;11.30;9.82;;;;;;;;;;5007752;28;20248;-57
2022/08/25 04:02:41;;;;;;;10.48;9.57;;;;;;;;;;5007198;28;20233;-57
2022/08/25 04:05:08;;;;;;;11.15;9.80;;;;;;;;;;5006005;28;20235;-57
2022/08/25 04:07:34;;;;;;;11.63;10.20;;;;;;;;;;5001003;28;20595;-57
2022/08/25 04:10:00;;;;;;;12.38;11.13;;;;;;;;;;5004994;28;20234;-57
2022/08/25 04:12:28;;;;;;;12.23;10.80;;;;;;;;;;5005598;28;20221;-56
2022/08/25 04:14:54;;;;;;;16.52;12.73;;;;;;;;;;5000615;28;20246;-58
2022/08/25 04:17:21;;;;;;;14.77;12.15;;;;;;;;;;5004174;28;20232;-56
2022/08/25 04:19:48;;;;;;;13.02;10.48;;;;;;;;;;5000024;28;20242;-56
2022/08/25 04:22:14;;;;;;;11.98;10.63;;;;;;;;;;5002782;28;20245;-58
2022/08/25 04:24:41;;;;;;;16.48;13.70;;;;;;;;;;5001710;28;20666;-57
2022/08/25 04:27:07;;;;;;;11.15;10.02;;;;;;;;;;5003644;28;20616;-57
2022/08/25 04:29:35;;;;;;;15.07;12.27;;;;;;;;;;5004129;28;20237;-57
2022/08/25 04:32:01;;;;;;;15.15;12.70;;;;;;;;;;5005609;28;20253;-58
2022/08/25 04:34:28;;;;;;;22.50;17.02;;;;;;;;;;4997833;28;20225;-57
2022/08/25 04:36:54;;;;;;;23.38;14.75;;;;;;;;;;5003225;28;20721;-58
2022/08/25 04:39:20;;;;;;;16.48;12.77;;;;;;;;;;5004700;28;20237;-56
2022/08/25 04:41:47;;;;;;;18.92;14.82;;;;;;;;;;4999578;28;20240;-57
2022/08/25 04:44:13;;;;;;;13.70;12.27;;;;;;;;;;5007277;28;20316;-57
2022/08/25 04:46:41;;;;;;;17.92;14.32;;;;;;;;;;5005916;28;20236;-57
2022/08/25 04:49:08;;;;;;;16.33;13.20;;;;;;;;;;5005274;28;20244;-56
2022/08/25 04:51:36;;;;;;;18.50;14.85;;;;;;;;;;5001935;28;20288;-57
2022/08/25 04:54:04;;;;;;;19.63;14.98;;;;;;;;;;5004395;28;20233;-56
2022/08/25 04:56:31;;;;;;;18.38;15.50;;;;;;;;;;5004338;28;20225;-56
2022/08/25 04:59:01;;;;;;;18.02;15.73;;;;;;;;;;4994962;28;20237;-56
2022/08/25 05:01:27;;;;;;;18.45;15.73;;;;;;;;;;5003091;28;20257;-56
2022/08/25 05:03:56;;;;;;;18.83;14.35;;;;;;;;;;4998641;28;20735;-57
2022/08/25 05:06:22;;;;;;;16.75;13.98;;;;;;;;;;4998455;28;20233;-56
2022/08/25 05:08:50;;;;;;;15.55;13.95;;;;;;;;;;5004750;28;20253;-56
2022/08/25 05:11:17;;;;;;;15.73;13.88;;;;;;;;;;5006010;28;20235;-57
2022/08/25 05:13:44;;;;;;;16.00;14.43;;;;;;;;;;5004171;28;20724;-56
2022/08/25 05:16:10;;;;;;;14.40;12.80;;;;;;;;;;5004518;28;20233;-57
2022/08/25 05:18:37;;;;;;;15.48;13.50;;;;;;;;;;4997034;28;20753;-56
2022/08/25 05:21:06;;;;;;;17.23;13.70;;;;;;;;;;5003442;28;20262;-58
2022/08/25 05:23:32;;;;;;;14.30;12.85;;;;;;;;;;5003165;28;20233;-58
2022/08/25 05:26:01;;;;;;;18.17;15.40;;;;;;;;;;4999603;28;20229;-58
2022/08/25 05:28:28;;;;;;;16.08;12.73;;;;;;;;;;5001737;28;20244;-57
2022/08/25 05:30:57;;;;;;;17.83;13.73;;;;;;;;;;5002828;28;20613;-57
2022/08/25 05:33:23;;;;;;;20.55;14.52;;;;;;;;;;5002063;28;20229;-57
2022/08/25 05:35:50;;;;;;;17.05;14.68;;;;;;;;;;5001347;28;20236;-56
2022/08/25 05:38:18;;;;;;;19.58;14.35;;;;;;;;;;5002387;28;20707;-57
2022/08/25 05:40:44;;;;;;;23.65;15.20;;;;;;;;;;5003828;28;20229;-56
2022/08/25 05:43:13;;;;;;;14.10;12.63;;;;;;;;;;5002565;28;20747;-56
2022/08/25 05:45:39;;;;;;;20.63;13.52;;;;;;;;;;4999760;28;20722;-57
2022/08/25 05:48:06;;;;;;;13.18;11.73;;;;;;;;;;4998371;28;20241;-57
2022/08/25 05:50:32;;;;;;;16.48;13.63;;;;;;;;;;5003326;28;20237;-58
2022/08/25 05:52:59;;;;;;;14.05;12.27;;;;;;;;;;5002978;28;20248;-58
2022/08/25 05:55:26;;;;;;;18.10;16.15;;;;;;;;;;5002833;28;20245;-58
2022/08/25 05:57:53;;;;;;;14.60;13.13;;;;;;;;;;5001977;28;20705;-58
2022/08/25 06:00:19;;;;;;;19.33;16.13;;;;;;;;;;5000272;28;20248;-57
2022/08/25 06:02:47;;;;;;;17.25;13.20;;;;;;;;;;5003217;28;20651;-57
2022/08/25 06:05:16;;;;;;;17.15;15.45;;;;;;;;;;5003614;28;20264;-58
2022/08/25 06:07:43;;;;;;;16.80;13.13;;;;;;;;;;5002598;28;20232;-57
2022/08/25 06:10:12;;;;;;;16.60;15.00;;;;;;;;;;4989416;28;20249;-57
2022/08/25 06:12:40;;;;;;;14.43;12.98;;;;;;;;;;5002564;28;20236;-57
2022/08/25 06:15:07;;;;;;;16.15;13.10;;;;;;;;;;4999611;28;20325;-57
2022/08/25 06:17:39;;;;;;;22.42;16.48;;;;;;;;;;5000558;28;20233;-58
2022/08/25 06:20:06;;;;;;;18.95;14.95;;;;;;;;;;5004450;28;20490;-58
2022/08/25 06:22:32;;;;;;;20.67;15.90;;;;;;;;;;5000564;28;20284;-58
2022/08/25 06:24:59;;;;;;;18.40;13.75;;;;;;;;;;5003159;28;20233;-60
2022/08/25 06:27:25;;;;;;;19.20;15.25;;;;;;;;;;4998702;28;20242;-59
2022/08/25 06:29:53;;;;;;;17.20;13.43;;;;;;;;;;4995136;28;20241;-61
2022/08/25 06:32:20;;;;;;;16.02;14.38;;;;;;;;;;5003584;28;20268;-56
2022/08/25 06:34:46;;;;;;;17.40;15.60;;;;;;;;;;4997193;28;20241;-57
2022/08/25 06:37:12;;;;;;;17.30;14.00;;;;;;;;;;4994233;28;20261;-57
2022/08/25 06:39:39;;;;;;;21.27;15.90;;;;;;;;;;5003275;28;20327;-58
2022/08/25 06:42:05;;;;;;;19.92;15.30;;;;;;;;;;5005901;28;20237;-57
2022/08/25 06:44:32;;;;;;;19.98;15.10;;;;;;;;;;5001713;28;20237;-56
2022/08/25 06:47:00;;;;;;;19.10;15.55;;;;;;;;;;5008307;28;20296;-58
2022/08/25 06:49:27;;;;;;;16.27;14.50;;;;;;;;;;5004841;28;20291;-58
2022/08/25 06:51:54;;;;;;;16.15;14.50;;;;;;;;;;5008211;28;20244;-58
2022/08/25 06:54:20;;;;;;;20.35;16.95;;;;;;;;;;5003207;28;20248;-57
2022/08/25 06:56:47;;;;;;;16.52;14.25;;;;;;;;;;5007095;28;20237;-57
2022/08/25 06:59:14;;;;;;;16.20;14.13;;;;;;;;;;5003886;28;20237;-57
2022/08/25 07:01:40;;;;;;;17.33;15.52;;;;;;;;;;5005090;28;20634;-57
2022/08/25 07:04:08;;;;;;;18.20;16.20;;;;;;;;;;5006574;28;20271;-56
2022/08/25 07:06:35;;;;;;;18.00;16.10;;;;;;;;;;5000528;28;20229;-58
2022/08/25 07:09:02;;;;;;;16.10;14.43;;;;;;;;;;5003390;28;20672;-63
2022/08/25 07:11:33;;;;;;;18.08;15.18;;;;;;;;;;5008460;28;20225;-56
2022/08/25 07:13:59;;;;;;;16.17;14.45;;;;;;;;;;5008106;28;20260;-62
2022/08/25 07:16:26;;;;;;;18.40;15.38;;;;;;;;;;5008482;28;20264;-57
2022/08/25 07:18:55;;;;;;;18.17;16.27;;;;;;;;;;5005057;28;20264;-56
2022/08/25 07:21:23;;;;;;;18.00;15.73;;;;;;;;;;5003285;28;20344;-57
2022/08/25 07:23:50;;;;;;;19.75;15.32;;;;;;;;;;5005301;28;20652;-56
2022/08/25 07:26:17;;;;;;;23.25;16.02;;;;;;;;;;5003659;28;20243;-57
2022/08/25 07:28:44;;;;;;;18.70;15.77;;;;;;;;;;5009527;28;20320;-58
2022/08/25 07:31:12;;;;;;;17.38;14.98;;;;;;;;;;5008305;28;20229;-56
2022/08/25 07:35:13;;;;;;;19.73;16.17;;;;;;;;;;5008243;28;20229;-62
2022/08/25 07:36:28;;;;;;;22.10;17.00;;;;;;;;;;5006713;28;20249;-57
2022/08/25 07:38:54;;;;;;;20.65;15.25;;;;;;;;;;5009757;28;20233;-57
2022/08/25 07:41:21;;;;;;;23.05;17.25;;;;;;;;;;5007261;28;20640;-58
2022/08/25 07:43:47;;;;;;;22.95;16.45;;;;;;;;;;5012492;28;20233;-58
2022/08/25 07:46:14;;;;;;;25.00;17.42;;;;;;;;;;5010204;28;20241;-57
2022/08/25 07:48:41;;;;;;;20.92;16.15;;;;;;;;;;5007574;28;20268;-56
2022/08/25 07:51:08;;;;;;;26.85;19.20;;;;;;;;;;5010564;28;20721;-56
2022/08/25 07:53:36;;;;;;;22.25;18.00;;;;;;;;;;5007711;28;20237;-59
2022/08/25 07:56:03;;;;;;;21.58;15.45;;;;;;;;;;5007226;28;20321;-56
2022/08/25 07:58:30;;;;;;;20.25;16.40;;;;;;;;;;5004866;28;20229;-57
2022/08/25 08:00:56;;;;;;;21.52;16.25;;;;;;;;;;5005347;28;20233;-58
2022/08/25 08:03:23;;;;;;;25.42;17.45;;;;;;;;;;5008043;28;20247;-56
2022/08/25 08:05:49;;;;;;;20.90;16.58;;;;;;;;;;5005467;28;20271;-60
2022/08/25 08:08:16;;;;;;;21.30;15.30;;;;;;;;;;5001133;28;20241;-56
2022/08/25 08:10:44;;;;;;;25.00;16.55;;;;;;;;;;4997452;28;20731;-57
2022/08/25 08:13:11;;;;;;;18.25;16.33;;;;;;;;;;5006472;28;20324;-56
2022/08/25 08:15:37;;;;;;;23.25;18.10;;;;;;;;;;4998062;28;20235;-56
2022/08/25 08:18:04;;;;;;;17.67;15.55;;;;;;;;;;5007275;28;20900;-56
2022/08/25 08:20:33;;;;;;;19.13;15.13;;;;;;;;;;5005294;28;20244;-57
2022/08/25 08:22:59;;;;;;;24.00;16.70;;;;;;;;;;5006590;28;20260;-60
2022/08/25 08:25:33;;;;;;;18.48;15.52;;;;;;;;;;5003383;28;20804;-61
2022/08/25 08:28:02;;;;;;;21.38;15.90;;;;;;;;;;5000123;28;20233;-59
2022/08/25 08:30:28;;;;;;;17.95;16.15;;;;;;;;;;5003864;28;20802;-57
2022/08/25 08:32:55;;;;;;;21.58;16.42;;;;;;;;;;5004015;28;20315;-58
2022/08/25 08:35:22;;;;;;;21.20;16.45;;;;;;;;;;5006751;28;20241;-56
2022/08/25 08:37:48;;;;;;;19.77;17.27;;;;;;;;;;5003906;28;20603;-57
2022/08/25 08:40:15;;;;;;;22.63;17.45;;;;;;;;;;5004107;28;20241;-59
2022/08/25 08:42:52;;;;;;;19.80;16.85;;;;;;;;;;5005673;28;20236;-55
2022/08/25 08:45:27;;;;;;;20.55;16.80;;;;;;;;;;4993681;28;20229;-59
2022/08/25 08:47:59;;;;;;;18.50;16.50;;;;;;;;;;4992377;28;20244;-57
2022/08/25 08:50:32;;;;;;;17.67;15.55;;;;;;;;;;4995615;28;20260;-57
2022/08/25 08:53:00;;;;;;;18.67;14.27;;;;;;;;;;5001051;28;20237;-56
2022/08/25 08:55:30;;;;;;;20.02;17.02;;;;;;;;;;5003355;28;20248;-58
2022/08/25 08:57:57;;;;;;;17.45;15.45;;;;;;;;;;4999251;28;20236;-60
2022/08/25 09:00:25;;;;;;;16.17;14.48;;;;;;;;;;4995702;28;20238;-57
2022/08/25 09:02:54;;;;;;;16.00;14.05;;;;;;;;;;4999976;28;20232;-57
2022/08/25 09:05:22;;;;;;;16.30;14.48;;;;;;;;;;5004730;28;20328;-55
2022/08/25 09:07:50;;;;;;;16.67;13.65;;;;;;;;;;4994046;28;20294;-56
2022/08/25 09:10:17;;;;;;;15.85;13.10;;;;;;;;;;4997374;28;20250;-56
2022/08/25 09:12:45;;;;;;;17.83;14.68;;;;;;;;;;5001045;28;20231;-55
2022/08/25 09:15:14;;;;;;;18.30;13.77;;;;;;;;;;5007887;28;20233;-56
2022/08/25 09:17:59;;;;;;;15.80;13.55;;;;;;;;;;5004057;28;20596;-55
2022/08/25 09:20:33;;;;;;;18.30;13.40;;;;;;;;;;5009032;28;20221;-56
2022/08/25 09:23:03;;;;;;;15.85;13.10;;;;;;;;;;5000752;28;20255;-55
2022/08/25 09:25:36;;;;;;;15.32;12.15;;;;;;;;;;5010219;28;20241;-56
2022/08/25 09:28:05;;;;;;;13.80;11.63;;;;;;;;;;5008098;28;20229;-57
2022/08/25 09:30:36;;;;;;;11.02;10.02;;;;;;;;;;5004457;28;20799;-55
2022/08/25 09:33:04;;;;;;;12.50;11.07;;;;;;;;;;5004562;28;20722;-55
2022/08/25 09:35:31;;;;;;;14.30;10.55;;;;;;;;;;5000871;28;20235;-56
2022/08/25 09:37:58;;;;;;;10.88;9.88;;;;;;;;;;5002094;28;20229;-59
2022/08/25 09:40:25;;;;;;;14.40;10.35;;;;;;;;;;5007174;28;20733;-56
2022/08/25 09:42:53;;;;;;;10.35;9.40;;;;;;;;;;5005158;28;20236;-57
2022/08/25 09:45:31;;;;;;;12.57;9.73;;;;;;;;;;5002583;28;20276;-55
2022/08/25 09:47:57;;;;;;;15.38;11.00;;;;;;;;;;4996389;28;20881;-57
2022/08/25 09:50:29;;;;;;;11.30;9.18;;;;;;;;;;4993154;28;20250;-55
2022/08/25 09:52:57;;;;;;;11.25;10.15;;;;;;;;;;4999388;28;20228;-56
2022/08/25 09:55:29;;;;;;;11.18;9.15;;;;;;;;;;5006583;28;20498;-56
2022/08/25 09:57:56;;;;;;;12.13;9.60;;;;;;;;;;5003946;28;20300;-56
2022/08/25 10:00:29;;;;;;;11.88;9.25;;;;;;;;;;5005899;28;20707;-56
2022/08/25 10:03:07;;;;;;;11.05;9.70;;;;;;;;;;5008607;28;20241;-56
2022/08/25 10:05:35;;;;;;;9.20;8.23;;;;;;;;;;5003217;28;20237;-55
2022/08/25 10:08:04;;;;;;;11.63;9.82;;;;;;;;;;5003115;28;20910;-56
2022/08/25 10:10:31;;;;;;;10.68;8.68;;;;;;;;;;5000624;28;20671;-58
2022/08/25 10:12:59;;;;;;;9.23;8.32;;;;;;;;;;4999134;28;20238;-58
2022/08/25 10:15:28;;;;;;;10.18;8.60;;;;;;;;;;5001292;28;21335;-55
2022/08/25 10:17:55;;;;;;;8.63;7.72;;;;;;;;;;5001916;28;20228;-56
2022/08/25 10:20:23;;;;;;;14.30;9.38;;;;;;;;;;5005175;28;20244;-56
2022/08/25 10:22:52;;;;;;;11.85;9.57;;;;;;;;;;5004346;28;20239;-56
2022/08/25 10:25:22;;;;;;;17.73;8.73;;;;;;;;;;4995483;28;20253;-56
2022/08/25 10:27:53;;;;;;;12.82;7.88;;;;;;;;;;5000091;28;20237;-55
2022/08/25 10:30:22;;;;;;;14.90;8.52;;;;;;;;;;4995829;28;20269;-56
2022/08/25 10:32:57;;;;;;;13.43;9.05;;;;;;;;;;4993951;28;20238;-56
2022/08/25 10:35:24;;;;;;;13.90;9.38;;;;;;;;;;5003332;28;20236;-56
2022/08/25 10:38:00;;;;;;;9.60;8.65;;;;;;;;;;5000706;28;20835;-56
2022/08/25 10:40:30;;;;;;;12.25;7.97;;;;;;;;;;4998008;28;20241;-56
2022/08/25 10:43:01;;;;;;;10.25;8.43;;;;;;;;;;5000880;28;20307;-55
2022/08/25 10:45:43;;;;;;;8.75;7.78;;;;;;;;;;5002602;28;20252;-56
2022/08/25 10:48:20;;;;;;;11.80;8.20;;;;;;;;;;5002036;28;20243;-56
2022/08/25 10:50:48;;;;;;;9.27;7.72;;;;;;;;;;5001243;28;20229;-55
2022/08/25 10:53:21;;;;;;;11.15;7.93;;;;;;;;;;4997065;28;20222;-57
2022/08/25 10:55:52;;;;;;;12.73;7.45;;;;;;;;;;4999540;28;20766;-56
2022/08/25 10:58:22;;;;;;;8.60;7.70;;;;;;;;;;5000720;28;20233;-56
2022/08/25 11:00:51;;;;;;;10.75;8.15;;;;;;;;;;5006340;28;20747;-56
2022/08/25 11:03:23;;;;;;;9.68;7.03;;;;;;;;;;4995778;28;23030;-56
2022/08/25 11:05:53;;;;;;;13.10;8.05;;;;;;;;;;4995977;28;20651;-55
2022/08/25 11:08:25;;;;;;;11.57;7.82;;;;;;;;;;4999118;28;20241;-56
2022/08/25 11:10:57;;;;;;;8.18;7.38;;;;;;;;;;4999607;28;20257;-58
2022/08/25 11:13:26;;;;;;;8.60;7.47;;;;;;;;;;5005127;28;20320;-56
2022/08/25 11:15:54;;;;;;;8.85;7.32;;;;;;;;;;5002174;28;20733;-55
2022/08/25 11:18:21;;;;;;;8.15;7.45;;;;;;;;;;5004738;28;20256;-56
2022/08/25 11:20:54;;;;;;;7.80;6.85;;;;;;;;;;5000767;28;20276;-56
2022/08/25 11:23:23;;;;;;;8.80;7.47;;;;;;;;;;5002942;28;20240;-55
2022/08/25 11:25:51;;;;;;;8.68;7.70;;;;;;;;;;4997196;28;20237;-56
2022/08/25 11:28:23;;;;;;;9.60;7.47;;;;;;;;;;5001051;28;20249;-57
2022/08/25 11:30:51;;;;;;;12.10;8.45;;;;;;;;;;5002860;28;20235;-55
2022/08/25 11:33:18;;;;;;;8.00;6.95;;;;;;;;;;5001995;28;20711;-56
2022/08/25 11:35:47;;;;;;;11.98;7.10;;;;;;;;;;4995257;28;20233;-54
2022/08/25 11:38:22;;;;;;;8.93;7.20;;;;;;;;;;4997640;28;20254;-55
2022/08/25 11:40:56;;;;;;;10.70;7.32;;;;;;;;;;4998967;28;20245;-55
2022/08/25 11:43:28;;;;;;;9.88;8.00;;;;;;;;;;5001723;28;20427;-56
2022/08/25 11:46:00;;;;;;;11.32;7.15;;;;;;;;;;4999991;28;20244;-59
2022/08/25 11:48:37;;;;;;;8.80;6.85;;;;;;;;;;4996695;28;20237;-55
2022/08/25 11:51:04;;;;;;;10.05;6.97;;;;;;;;;;4999496;28;20363;-56
2022/08/25 11:53:32;;;;;;;10.68;6.90;;;;;;;;;;5003173;28;20233;-56
2022/08/25 11:56:03;;;;;;;9.82;7.25;;;;;;;;;;5004639;28;20237;-59
2022/08/25 11:58:32;;;;;;;10.85;7.53;;;;;;;;;;4997407;28;20299;-56
2022/08/25 12:00:59;;;;;;;7.68;6.93;;;;;;;;;;5001434;28;20240;-58
2022/08/25 12:03:43;;;;;;;8.13;6.95;;;;;;;;;;5004485;28;20241;-56
2022/08/25 12:06:17;;;;;;;11.75;6.57;;;;;;;;;;5002982;28;20225;-55
2022/08/25 12:08:49;;;;;;;9.73;6.05;;;;;;;;;;4997015;28;20271;-56
2022/08/25 12:11:42;;;;;;;11.10;6.90;;;;;;;;;;5002298;28;20229;-56
2022/08/25 12:14:15;;;;;;;10.23;7.22;;;;;;;;;;5001113;28;20229;-56
2022/08/25 12:16:45;;;;;;;11.80;6.97;;;;;;;;;;5004581;28;20872;-60
2022/08/25 12:19:25;;;;;;;9.77;6.45;;;;;;;;;;5006467;28;20241;-56
2022/08/25 12:21:52;;;;;;;10.43;7.15;;;;;;;;;;5003413;28;20244;-56
2022/08/25 12:24:20;;;;;;;8.80;5.93;;;;;;;;;;5001829;28;20233;-55
2022/08/25 12:26:57;;;;;;;6.85;6.15;;;;;;;;;;5000782;28;20248;-57
2022/08/25 12:29:32;;;;;;;10.48;7.22;;;;;;;;;;5005862;28;20761;-56
2022/08/25 12:32:05;;;;;;;10.73;7.03;;;;;;;;;;5006250;28;20232;-56
2022/08/25 12:34:39;;;;;;;11.45;6.47;;;;;;;;;;4998352;28;21088;-56
2022/08/25 12:37:11;;;;;;;9.10;6.40;;;;;;;;;;5002263;28;20507;-59
2022/08/25 12:39:43;;;;;;;11.65;7.28;;;;;;;;;;5001252;28;20229;-56
2022/08/25 12:42:23;;;;;;;7.93;6.35;;;;;;;;;;4993020;28;20234;-55
2022/08/25 12:45:08;;;;;;;13.00;6.43;;;;;;;;;;4993766;28;20248;-58
2022/08/25 12:47:34;;;;;;;9.13;7.05;;;;;;;;;;4994075;28;20225;-55
2022/08/25 12:50:20;;;;;;;11.40;6.00;;;;;;;;;;5005808;28;20272;-54
2022/08/25 12:52:47;;;;;;;11.32;5.95;;;;;;;;;;5001083;28;20229;-56
2022/08/25 12:55:13;;;;;;;11.68;5.25;;;;;;;;;;4999022;28;20233;-55
2022/08/25 12:57:44;;;;;;;8.13;6.10;;;;;;;;;;5000826;28;20240;-56
2022/08/25 13:00:15;;;;;;;8.15;6.50;;;;;;;;;;4995345;28;20526;-55
2022/08/25 13:03:00;;;;;;;10.00;6.13;;;;;;;;;;5000278;28;20449;-57
2022/08/25 13:05:42;;;;;;;8.88;5.68;;;;;;;;;;5003092;28;20236;-59
2022/08/25 13:08:32;;;;;;;6.88;5.57;;;;;;;;;;5000615;28;20225;-57
2022/08/25 13:11:03;;;;;;;9.93;6.38;;;;;;;;;;4998927;28;20240;-57
2022/08/25 13:13:37;;;;;;;8.32;6.25;;;;;;;;;;5002883;28;20432;-57
2022/08/25 13:16:05;;;;;;;10.38;5.43;;;;;;;;;;4991675;28;20232;-55
2022/08/25 13:18:32;;;;;;;10.75;6.00;;;;;;;;;;4999410;28;20236;-58
2022/08/25 13:21:07;;;;;;;7.93;5.93;;;;;;;;;;5000655;28;20240;-58
2022/08/25 13:23:34;;;;;;;9.73;5.32;;;;;;;;;;4999282;28;20229;-57
2022/08/25 13:26:01;;;;;;;11.85;6.47;;;;;;;;;;5000990;28;20737;-56
2022/08/25 13:28:29;;;;;;;7.70;6.07;;;;;;;;;;4998475;28;20239;-55
2022/08/25 13:30:58;;;;;;;8.25;6.28;;;;;;;;;;4998078;28;20229;-55
2022/08/25 13:33:24;;;;;;;10.77;5.90;;;;;;;;;;5004481;28;20305;-58
2022/08/25 13:37:26;;;;;;;8.98;5.47;;;;;;;;;;5004304;28;21013;-55
2022/08/25 13:38:39;;;;;;;14.05;6.47;;;;;;;;;;4994019;28;20225;-58
2022/08/25 13:41:07;;;;;;;9.88;6.35;;;;;;;;;;4995771;28;20224;-56
2022/08/25 13:43:34;;;;;;;12.43;6.15;;;;;;;;;;4996801;28;20233;-55
2022/08/25 13:46:02;;;;;;;10.52;6.55;;;;;;;;;;4990212;28;20729;-57
2022/08/25 13:48:32;;;;;;;8.32;6.53;;;;;;;;;;4998204;28;20237;-57
2022/08/25 13:51:06;;;;;;;9.63;6.28;;;;;;;;;;4999200;28;20233;-56
2022/08/25 13:53:32;;;;;;;15.30;6.50;;;;;;;;;;4991778;28;20695;-56
2022/08/25 13:56:00;;;;;;;15.10;6.13;;;;;;;;;;4993124;28;20241;-57
2022/08/25 13:58:27;;;;;;;6.80;5.85;;;;;;;;;;4998552;28;20439;-57
2022/08/25 14:01:03;;;;;;;8.32;6.40;;;;;;;;;;5000099;28;20244;-56
2022/08/25 14:03:31;;;;;;;7.72;6.28;;;;;;;;;;5003646;28;20221;-57
2022/08/25 14:06:04;;;;;;;8.18;6.15;;;;;;;;;;5005841;28;20647;-57
2022/08/25 14:08:31;;;;;;;9.93;6.57;;;;;;;;;;5005333;28;20691;-56
2022/08/25 14:11:02;;;;;;;14.60;9.00;;;;;;;;;;5008644;28;20291;-57
2022/08/25 14:13:30;;;;;;;14.45;6.75;;;;;;;;;;4998448;28;20225;-56
2022/08/25 14:16:06;;;;;;;11.63;5.72;;;;;;;;;;5007066;28;20233;-57
2022/08/25 14:18:34;;;;;;;8.60;6.82;;;;;;;;;;5004998;28;20225;-56
2022/08/25 14:21:06;;;;;;;9.55;6.50;;;;;;;;;;5005442;28;20237;-56
2022/08/25 14:23:35;;;;;;;12.65;6.32;;;;;;;;;;5004391;28;20319;-57
2022/08/25 14:26:01;;;;;;;8.90;5.68;;;;;;;;;;5007257;28;20236;-57
2022/08/25 14:28:29;;;;;;;8.90;5.38;;;;;;;;;;4996614;28;20237;-56
2022/08/25 14:30:57;;;;;;;11.15;5.85;;;;;;;;;;4999612;28;20484;-56
2022/08/25 14:33:26;;;;;;;10.60;5.65;;;;;;;;;;5006057;28;20233;-57
2022/08/25 14:35:54;;;;;;;9.27;6.53;;;;;;;;;;4995299;28;20248;-57
2022/08/25 14:38:22;;;;;;;9.45;5.80;;;;;;;;;;4999311;28;20602;-57
2022/08/25 14:40:48;;;;;;;11.25;5.68;;;;;;;;;;4999083;28;20308;-56